Time;durP1;ratioP1;P1;durP2;ratioP2;P2;SDS_P1;SDS_P2;PMS_P1;PMS_P2;Temp;Humidity;BMP_temperature;BMP_pressure;BME280_temperature;BME280_humidity;BME280_pressure;Samples;Min_cycle;Max_cycle;Signal;HPM_P1;HPM_P2
2021/06/19 00:00:16;;;;;;;3.00;1.50;;;24.20;95.90;;;;;;4247522;28;20051;-75
2021/06/19 00:02:20;;;;;;;2.88;1.50;;;24.20;95.90;;;;;;4248040;28;20039;-76
2021/06/19 00:04:24;;;;;;;2.05;1.42;;;24.10;96.10;;;;;;4247458;28;20051;-79
2021/06/19 00:06:27;;;;;;;2.65;1.42;;;24.00;96.30;;;;;;4247365;28;20445;-77
2021/06/19 00:08:32;;;;;;;1.98;1.10;;;24.10;96.30;;;;;;4247616;28;20043;-76
2021/06/19 00:10:35;;;;;;;3.33;1.15;;;24.00;96.40;;;;;;4248936;28;20047;-76
2021/06/19 00:12:38;;;;;;;1.50;1.35;;;24.10;96.30;;;;;;4248093;28;20051;-78
2021/06/19 00:14:41;;;;;;;3.03;1.55;;;24.20;96.30;;;;;;4250125;28;20051;-76
2021/06/19 00:16:45;;;;;;;2.97;1.45;;;24.10;96.20;;;;;;4249919;28;20408;-77
2021/06/19 00:18:48;;;;;;;4.20;1.40;;;24.10;96.10;;;;;;4230246;28;20059;-75
2021/06/19 00:20:51;;;;;;;3.28;1.48;;;24.20;96.10;;;;;;4229202;28;20090;-75
2021/06/19 00:22:54;;;;;;;2.40;1.42;;;24.20;96.00;;;;;;4245874;28;20104;-75
2021/06/19 00:24:59;;;;;;;2.38;1.50;;;24.20;95.80;;;;;;4246540;28;20088;-75
2021/06/19 00:27:02;;;;;;;1.52;1.20;;;24.20;95.80;;;;;;4245774;28;20055;-76
2021/06/19 00:29:05;;;;;;;2.38;1.38;;;24.20;96.10;;;;;;4245660;28;20047;-75
2021/06/19 00:31:08;;;;;;;4.38;1.45;;;24.20;96.10;;;;;;4245882;28;20054;-76
2021/06/19 00:33:11;;;;;;;3.17;1.40;;;24.10;96.50;;;;;;4245947;28;20058;-76
2021/06/19 00:35:15;;;;;;;2.28;1.50;;;24.10;96.30;;;;;;4245913;28;20483;-75
2021/06/19 00:37:18;;;;;;;3.08;1.42;;;24.00;96.50;;;;;;4245629;28;20047;-75
2021/06/19 00:39:21;;;;;;;1.98;1.23;;;24.00;96.40;;;;;;4245449;28;20112;-76
2021/06/19 00:41:26;;;;;;;1.90;1.30;;;23.90;96.70;;;;;;4245980;28;20047;-76
2021/06/19 00:43:29;;;;;;;2.13;1.38;;;23.90;96.70;;;;;;4227472;28;20048;-74
2021/06/19 00:45:33;;;;;;;2.20;1.30;;;23.90;96.80;;;;;;4245739;28;20056;-74
2021/06/19 00:47:38;;;;;;;2.70;1.70;;;23.90;96.70;;;;;;4245437;28;20051;-75
2021/06/19 00:49:41;;;;;;;;;;;23.90;96.80;;;;;;4246094;28;20051;-76
2021/06/19 00:51:45;;;;;;;4.57;1.35;;;23.80;96.80;;;;;;4245730;28;19927;-74
2021/06/19 00:53:48;;;;;;;1.65;1.48;;;23.80;97.20;;;;;;4245814;28;20051;-75
2021/06/19 00:55:51;;;;;;;2.83;1.60;;;23.70;97.50;;;;;;4245799;28;20047;-74
2021/06/19 00:57:56;;;;;;;1.42;1.15;;;23.80;97.30;;;;;;4245908;28;20051;-76
2021/06/19 01:00:00;;;;;;;3.45;1.27;;;23.80;97.50;;;;;;4247467;27;20156;-76
2021/06/19 01:02:03;;;;;;;3.28;1.40;;;23.80;97.40;;;;;;4248717;27;20059;-75
2021/06/19 01:04:07;;;;;;;1.83;1.20;;;23.80;97.30;;;;;;4248534;27;20476;-74
2021/06/19 01:06:10;;;;;;;2.42;1.50;;;23.80;97.30;;;;;;4248579;27;20055;-77
2021/06/19 01:08:13;;;;;;;2.40;1.80;;;23.80;97.50;;;;;;4248584;27;20059;-79
2021/06/19 01:10:16;;;;;;;4.25;1.67;;;23.70;97.60;;;;;;4248637;27;20537;-76
2021/06/19 01:12:23;;;;;;;2.47;1.50;;;23.70;97.40;;;;;;4249675;27;20095;-75
2021/06/19 01:14:28;;;;;;;6.22;1.67;;;23.80;97.10;;;;;;4248012;27;20100;-74
2021/06/19 01:16:32;;;;;;;3.28;1.67;;;23.80;97.20;;;;;;4231012;28;20435;-74
2021/06/19 01:18:35;;;;;;;2.77;1.87;;;23.70;97.60;;;;;;4252019;27;20048;-74
2021/06/19 01:20:38;;;;;;;5.05;1.70;;;23.70;97.40;;;;;;4235884;28;20069;-75
2021/06/19 01:22:43;;;;;;;2.20;1.40;;;23.60;97.60;;;;;;4252687;27;20043;-74
2021/06/19 01:24:47;;;;;;;;;;;23.70;97.50;;;;;;4231782;28;20443;-75
2021/06/19 01:26:51;;;;;;;1.83;1.27;;;23.60;97.50;;;;;;4248339;27;19992;-74
2021/06/19 01:28:55;;;;;;;3.35;1.50;;;23.60;97.80;;;;;;4247998;27;20620;-75
2021/06/19 01:30:58;;;;;;;3.55;1.55;;;23.60;97.30;;;;;;4230386;28;20569;-76
2021/06/19 01:33:01;;;;;;;3.63;1.80;;;23.60;97.70;;;;;;4247693;27;20055;-75
2021/06/19 01:35:07;;;;;;;3.65;1.75;;;23.50;97.40;;;;;;4229997;28;20416;-76
2021/06/19 01:37:14;;;;;;;5.18;1.95;;;23.50;97.60;;;;;;4230025;28;20071;-76
2021/06/19 01:39:17;;;;;;;2.67;1.88;;;23.50;97.60;;;;;;4247820;27;20055;-75
2021/06/19 01:41:24;;;;;;;3.63;2.00;;;23.50;97.80;;;;;;4229737;27;20500;-75
2021/06/19 01:43:27;;;;;;;2.95;1.70;;;23.50;97.50;;;;;;4247963;27;20047;-77
2021/06/19 01:45:33;;;;;;;2.35;1.55;;;23.60;97.20;;;;;;4229419;28;20458;-76
2021/06/19 01:47:36;;;;;;;4.07;1.77;;;23.60;97.40;;;;;;4247895;27;20065;-75
2021/06/19 01:49:39;;;;;;;2.22;1.70;;;23.50;97.90;;;;;;4229926;28;20040;-77
2021/06/19 01:51:42;;;;;;;4.53;1.77;;;23.50;97.60;;;;;;4248623;27;20485;-75
2021/06/19 01:53:48;;;;;;;2.88;1.73;;;23.50;97.40;;;;;;4249401;27;20091;-76
2021/06/19 01:55:51;;;;;;;3.78;1.65;;;23.50;97.70;;;;;;4247993;27;20104;-76
2021/06/19 01:57:57;;;;;;;6.45;1.90;;;23.50;97.50;;;;;;4248246;27;20419;-76
2021/06/19 02:00:01;;;;;;;2.30;1.58;;;23.50;97.60;;;;;;4249410;27;20059;-75
2021/06/19 02:02:04;;;;;;;3.40;1.90;;;23.50;97.00;;;;;;4250391;27;20446;-76
2021/06/19 02:04:07;;;;;;;5.32;2.10;;;23.50;97.40;;;;;;4250046;27;20049;-75
2021/06/19 02:06:11;;;;;;;4.22;2.00;;;23.50;97.60;;;;;;4231760;28;20614;-76
2021/06/19 02:08:14;;;;;;;5.85;1.98;;;23.50;97.30;;;;;;4230431;28;20090;-76
2021/06/19 02:10:19;;;;;;;1.77;1.58;;;23.40;97.40;;;;;;4230284;27;20059;-76
2021/06/19 02:12:22;;;;;;;5.15;1.80;;;23.40;97.10;;;;;;4248049;27;20046;-75
2021/06/19 02:14:27;;;;;;;1.83;1.50;;;23.40;97.10;;;;;;4229141;28;20063;-76
2021/06/19 02:16:30;;;;;;;1.60;1.50;;;23.30;97.60;;;;;;4247909;27;20043;-76
2021/06/19 02:18:33;;;;;;;3.53;1.30;;;23.30;97.30;;;;;;4247511;27;20059;-76
2021/06/19 02:20:36;;;;;;;4.20;1.50;;;23.40;97.20;;;;;;4247762;27;20059;-75
2021/06/19 02:22:39;;;;;;;6.38;1.63;;;23.30;97.30;;;;;;4250001;27;20092;-77
2021/06/19 02:24:42;;;;;;;2.20;1.60;;;23.20;97.50;;;;;;4232559;28;20056;-76
2021/06/19 02:26:45;;;;;;;2.97;1.65;;;23.10;97.70;;;;;;4251278;27;20054;-77
2021/06/19 02:28:48;;;;;;;2.20;1.75;;;23.10;97.80;;;;;;4247716;27;20047;-76
2021/06/19 02:30:55;;;;;;;4.25;1.70;;;23.10;98.00;;;;;;4229068;28;20485;-76
2021/06/19 02:32:59;;;;;;;3.58;1.40;;;23.00;97.90;;;;;;4247223;27;20050;-77
2021/06/19 02:35:02;;;;;;;4.40;1.70;;;23.10;97.90;;;;;;4228915;28;20056;-75
2021/06/19 02:37:06;;;;;;;4.53;1.65;;;23.00;98.10;;;;;;4246930;27;20055;-77
2021/06/19 02:39:09;;;;;;;3.97;1.50;;;23.00;97.90;;;;;;4246705;27;20468;-76
2021/06/19 02:41:11;;;;;;;2.60;1.58;;;23.00;97.90;;;;;;4228780;27;20052;-76
2021/06/19 02:43:17;;;;;;;2.35;1.58;;;23.20;97.70;;;;;;4246536;27;20056;-77
2021/06/19 02:45:20;;;;;;;4.43;2.22;;;23.00;98.40;;;;;;4228614;28;20647;-75
2021/06/19 02:47:25;;;;;;;5.22;1.83;;;23.10;98.10;;;;;;4246970;27;20059;-78
2021/06/19 02:49:29;;;;;;;6.50;2.00;;;23.10;98.20;;;;;;4246578;27;20054;-76
2021/06/19 02:51:32;;;;;;;4.20;2.00;;;23.20;98.30;;;;;;4246245;27;20138;-77
2021/06/19 02:53:35;;;;;;;2.85;1.85;;;23.30;97.80;;;;;;4247038;27;20066;-76
2021/06/19 02:55:40;;;;;;;2.28;1.80;;;23.30;97.70;;;;;;4246866;27;20047;-76
2021/06/19 02:57:44;;;;;;;1.73;1.63;;;23.30;97.70;;;;;;4246513;27;20491;-75
2021/06/19 02:59:47;;;;;;;3.67;1.60;;;23.30;97.70;;;;;;4246471;27;20500;-76
2021/06/19 03:01:50;;;;;;;3.05;1.73;;;23.30;97.50;;;;;;4246577;27;20105;-75
2021/06/19 03:03:55;;;;;;;4.65;2.30;;;23.30;97.90;;;;;;4228174;28;20055;-77
2021/06/19 03:06:01;;;;;;;4.30;1.73;;;23.10;97.80;;;;;;4246678;27;20576;-78
2021/06/19 03:08:05;;;;;;;5.72;1.70;;;23.30;97.60;;;;;;4246615;27;20043;-77
2021/06/19 03:10:10;;;;;;;4.00;1.90;;;23.40;97.90;;;;;;4246595;27;20067;-76
2021/06/19 03:12:14;;;;;;;3.67;2.03;;;23.30;97.90;;;;;;4246597;27;20617;-76
2021/06/19 03:14:17;;;;;;;2.03;1.70;;;23.30;97.60;;;;;;4245743;27;20063;-76
2021/06/19 03:16:20;;;;;;;2.08;1.88;;;23.40;97.70;;;;;;4246298;27;20059;-76
2021/06/19 03:18:23;;;;;;;5.97;2.22;;;23.40;97.70;;;;;;4246186;27;20583;-76
2021/06/19 03:20:28;;;;;;;2.35;1.88;;;23.40;97.80;;;;;;4246179;27;20055;-77
2021/06/19 03:22:41;;;;;;;4.05;1.90;;;23.30;98.10;;;;;;4245622;27;20469;-74
2021/06/19 03:24:44;;;;;;;6.50;1.90;;;23.30;97.90;;;;;;4247017;27;20062;-75
2021/06/19 03:26:47;;;;;;;6.50;2.30;;;23.40;97.90;;;;;;4251622;27;20439;-75
2021/06/19 03:28:50;;;;;;;3.67;2.08;;;23.40;97.70;;;;;;4251260;27;20055;-75
2021/06/19 03:30:53;;;;;;;5.60;1.92;;;23.30;97.90;;;;;;4252641;27;20107;-74
2021/06/19 03:32:57;;;;;;;2.78;1.80;;;23.20;98.00;;;;;;4251778;27;20050;-75
2021/06/19 03:35:00;;;;;;;5.22;2.35;;;23.30;98.00;;;;;;4250976;27;20469;-74
2021/06/19 03:37:05;;;;;;;6.10;2.25;;;23.20;98.10;;;;;;4251519;27;20055;-74
2021/06/19 03:39:08;;;;;;;;;;;23.20;98.40;;;;;;4250483;27;20051;-76
2021/06/19 03:41:11;;;;;;;9.07;2.35;;;23.10;98.50;;;;;;4247849;27;19919;-74
2021/06/19 03:43:14;;;;;;;7.15;2.30;;;23.10;98.70;;;;;;4228607;28;20573;-75
2021/06/19 03:45:18;;;;;;;6.97;2.22;;;23.10;98.80;;;;;;4246124;27;20524;-75
2021/06/19 03:47:21;;;;;;;5.53;2.13;;;23.10;98.70;;;;;;4227940;28;20044;-76
2021/06/19 03:49:25;;;;;;;4.38;2.20;;;23.10;98.40;;;;;;4245756;27;20055;-76
2021/06/19 03:51:28;;;;;;;7.78;2.17;;;23.10;98.80;;;;;;4245923;27;20055;-76
2021/06/19 03:53:33;;;;;;;10.35;3.17;;;22.90;98.90;;;;;;4227587;28;20467;-76
2021/06/19 03:55:36;;;;;;;8.00;2.35;;;22.90;99.00;;;;;;4245930;28;20047;-76
2021/06/19 03:57:39;;;;;;;4.60;2.65;;;22.90;98.90;;;;;;4245797;28;20066;-74
2021/06/19 03:59:42;;;;;;;8.07;2.17;;;22.90;99.00;;;;;;4245951;28;20051;-74
2021/06/19 04:01:45;;;;;;;5.38;2.25;;;23.00;98.60;;;;;;4245860;28;20439;-75
2021/06/19 04:03:48;;;;;;;5.40;2.30;;;23.00;98.70;;;;;;4228777;28;20526;-76
2021/06/19 04:05:51;;;;;;;7.63;2.70;;;23.00;98.70;;;;;;4246898;28;20047;-75
2021/06/19 04:07:54;;;;;;;6.55;2.50;;;22.90;99.20;;;;;;4246699;28;20143;-75
2021/06/19 04:09:59;;;;;;;4.20;2.17;;;22.90;99.00;;;;;;4228367;28;20105;-74
2021/06/19 04:12:03;;;;;;;7.55;2.58;;;22.80;99.10;;;;;;4246898;28;20055;-75
2021/06/19 04:14:06;;;;;;;5.72;2.30;;;22.90;99.00;;;;;;4242899;28;20063;-75
2021/06/19 04:16:10;;;;;;;3.03;1.98;;;23.00;99.10;;;;;;4229163;28;20443;-74
2021/06/19 04:18:13;;;;;;;5.00;2.35;;;22.90;99.20;;;;;;4210771;28;20052;-74
2021/06/19 04:20:16;;;;;;;6.43;2.60;;;23.00;98.80;;;;;;4229002;28;20470;-75
2021/06/19 04:22:20;;;;;;;5.28;2.88;;;23.00;99.00;;;;;;4229116;28;20051;-74
2021/06/19 04:24:23;;;;;;;4.38;2.50;;;22.90;99.10;;;;;;4229843;28;20047;-75
2021/06/19 04:26:27;;;;;;;9.68;2.50;;;22.80;99.40;;;;;;4215472;28;20458;-76
2021/06/19 04:28:31;;;;;;;5.57;2.08;;;22.80;99.50;;;;;;4231767;28;20081;-75
2021/06/19 04:30:34;;;;;;;7.43;2.95;;;22.80;99.50;;;;;;4213933;28;20099;-75
2021/06/19 04:32:37;;;;;;;4.72;2.53;;;22.80;99.60;;;;;;4231352;28;20116;-75
2021/06/19 04:34:41;;;;;;;5.63;2.88;;;22.90;99.50;;;;;;4230706;28;20105;-75
2021/06/19 04:36:45;;;;;;;7.00;2.63;;;22.90;99.40;;;;;;4232308;28;20069;-76
2021/06/19 04:38:48;;;;;;;12.13;2.67;;;22.90;99.50;;;;;;4231999;28;20480;-76
2021/06/19 04:43:07;;;;;;;6.90;2.85;;;22.80;99.80;;;;;;4232314;28;20213;-75
2021/06/19 04:45:12;;;;;;;11.88;2.85;;;22.90;99.70;;;;;;4231764;28;20060;-74
2021/06/19 04:47:15;;;;;;;11.93;3.38;;;22.90;99.70;;;;;;4231916;28;20117;-75
2021/06/19 04:49:18;;;;;;;9.85;3.15;;;22.90;99.60;;;;;;4237817;27;20054;-77
2021/06/19 04:51:21;;;;;;;7.35;3.22;;;22.80;99.90;;;;;;4230639;28;20101;-75
2021/06/19 04:53:24;;;;;;;6.38;2.88;;;22.80;99.90;;;;;;4248927;27;20055;-77
2021/06/19 04:55:29;;;;;;;8.45;3.30;;;22.80;99.90;;;;;;4230681;28;20112;-75
2021/06/19 04:57:32;;;;;;;4.72;3.03;;;22.80;99.90;;;;;;4248874;27;20054;-76
2021/06/19 04:59:36;;;;;;;4.03;2.85;;;22.90;99.90;;;;;;4248793;27;20055;-77
2021/06/19 05:01:39;;;;;;;6.18;3.15;;;22.80;99.90;;;;;;4248547;27;20606;-75
2021/06/19 05:03:42;;;;;;;5.80;3.13;;;22.70;99.90;;;;;;4248267;27;20537;-75
2021/06/19 05:05:46;;;;;;;5.30;2.83;;;22.80;99.90;;;;;;4249191;27;20602;-77
2021/06/19 05:07:49;;;;;;;4.22;3.00;;;22.80;99.90;;;;;;4248836;27;20061;-75
2021/06/19 05:09:52;;;;;;;6.75;3.22;;;22.90;99.90;;;;;;4230356;28;20047;-77
2021/06/19 05:11:55;;;;;;;4.95;2.85;;;22.70;99.90;;;;;;4248637;27;20491;-75
2021/06/19 05:13:58;;;;;;;5.63;3.03;;;22.60;99.90;;;;;;4248442;27;20051;-75
2021/06/19 05:16:02;;;;;;;6.32;2.90;;;22.60;99.90;;;;;;4247163;27;20408;-77
2021/06/19 05:18:05;;;;;;;8.05;3.13;;;22.60;99.90;;;;;;4248381;27;20442;-75
2021/06/19 05:20:09;;;;;;;7.88;3.13;;;22.60;99.90;;;;;;4248594;27;20050;-75
2021/06/19 05:22:12;;;;;;;7.47;3.20;;;22.60;99.90;;;;;;4247937;27;20059;-76
2021/06/19 05:24:17;;;;;;;5.72;3.30;;;22.80;99.90;;;;;;4248389;27;20058;-75
2021/06/19 05:26:20;;;;;;;7.10;3.75;;;23.00;99.90;;;;;;4248253;27;20051;-75
2021/06/19 05:28:23;;;;;;;6.10;3.10;;;23.00;99.90;;;;;;4248538;27;20499;-77
2021/06/19 05:30:26;;;;;;;4.75;2.90;;;23.10;99.70;;;;;;4248496;27;20544;-76
2021/06/19 05:32:30;;;;;;;11.38;3.47;;;23.30;99.40;;;;;;4250705;27;20065;-75
2021/06/19 05:34:34;;;;;;;7.50;2.97;;;23.30;99.00;;;;;;4234790;28;20043;-76
2021/06/19 05:36:37;;;;;;;7.78;2.97;;;23.30;99.20;;;;;;4234993;28;20051;-76
2021/06/19 05:38:40;;;;;;;5.78;2.45;;;23.30;98.90;;;;;;4231494;27;20448;-76
2021/06/19 05:40:43;;;;;;;6.80;2.78;;;23.40;98.80;;;;;;4248059;27;20511;-77
2021/06/19 05:42:46;;;;;;;7.88;2.92;;;23.40;98.80;;;;;;4247561;27;20055;-76
2021/06/19 05:44:49;;;;;;;4.75;2.63;;;23.20;98.90;;;;;;4247574;27;20047;-75
2021/06/19 05:46:52;;;;;;;6.78;2.95;;;23.20;99.10;;;;;;4229839;28;20093;-78
2021/06/19 05:48:57;;;;;;;5.38;2.70;;;23.20;99.00;;;;;;4247699;27;20063;-78
2021/06/19 05:51:00;;;;;;;4.68;2.70;;;23.40;98.80;;;;;;4247856;27;20047;-74
2021/06/19 05:53:03;;;;;;;7.00;2.70;;;23.40;98.50;;;;;;4229599;28;20051;-77
2021/06/19 05:55:08;;;;;;;7.22;2.20;;;23.30;98.50;;;;;;4248268;27;20498;-74
2021/06/19 05:57:11;;;;;;;4.65;2.25;;;23.40;98.20;;;;;;4248370;27;20547;-76
2021/06/19 05:59:14;;;;;;;4.55;2.10;;;23.40;98.30;;;;;;4248354;27;20043;-77
2021/06/19 06:01:17;;;;;;;4.35;2.25;;;23.40;98.10;;;;;;4250892;27;20043;-75
2021/06/19 06:03:20;;;;;;;3.20;1.73;;;23.30;97.80;;;;;;4235023;28;20055;-75
2021/06/19 06:05:24;;;;;;;3.08;1.65;;;23.30;97.90;;;;;;4238962;28;20093;-76
2021/06/19 06:07:27;;;;;;;7.05;2.17;;;23.40;97.90;;;;;;4258395;27;20139;-74
2021/06/19 06:09:31;;;;;;;5.28;2.22;;;23.50;97.80;;;;;;4251806;27;20057;-76
2021/06/19 06:11:34;;;;;;;3.80;2.30;;;23.50;97.60;;;;;;4248369;27;20047;-77
2021/06/19 06:13:37;;;;;;;11.18;2.50;;;23.50;97.60;;;;;;4231708;27;20055;-76
2021/06/19 06:15:40;;;;;;;4.53;2.28;;;23.50;97.60;;;;;;4248110;27;20090;-77
2021/06/19 06:17:43;;;;;;;4.60;2.33;;;23.60;97.50;;;;;;4247554;27;20452;-77
2021/06/19 06:19:46;;;;;;;5.50;2.83;;;23.60;97.50;;;;;;4247758;27;20043;-75
2021/06/19 06:21:51;;;;;;;4.30;2.75;;;23.70;97.50;;;;;;4250718;27;20047;-77
2021/06/19 06:23:54;;;;;;;7.03;3.20;;;23.70;97.50;;;;;;4252994;27;20051;-76
2021/06/19 06:25:57;;;;;;;6.32;2.90;;;23.80;97.40;;;;;;4234754;28;20096;-77
2021/06/19 06:28:01;;;;;;;5.15;2.88;;;23.60;97.80;;;;;;4250823;27;20055;-76
2021/06/19 06:30:06;;;;;;;4.25;2.70;;;23.50;98.10;;;;;;4251614;27;20047;-76
2021/06/19 06:32:09;;;;;;;;;;;23.50;98.10;;;;;;4248501;27;20544;-75
2021/06/19 06:34:13;;;;;;;5.75;3.15;;;23.60;98.20;;;;;;4247092;27;20256;-75
2021/06/19 06:36:16;;;;;;;6.07;3.63;;;23.70;98.00;;;;;;4230829;28;20081;-76
2021/06/19 06:38:20;;;;;;;10.57;3.90;;;23.70;98.20;;;;;;4251032;27;20062;-75
2021/06/19 06:40:23;;;;;;;8.07;3.05;;;23.50;98.60;;;;;;4249856;27;20062;-75
2021/06/19 06:42:26;;;;;;;7.60;3.90;;;23.60;98.30;;;;;;4248414;27;20055;-75
2021/06/19 06:44:30;;;;;;;7.38;3.92;;;23.60;98.40;;;;;;4246572;27;20055;-76
2021/06/19 06:46:33;;;;;;;8.68;4.00;;;23.70;98.40;;;;;;4246931;27;20050;-75
2021/06/19 06:48:36;;;;;;;5.72;4.00;;;23.60;98.60;;;;;;4246816;27;20620;-76
2021/06/19 06:50:40;;;;;;;4.78;3.40;;;23.60;98.40;;;;;;4246787;27;20047;-75
2021/06/19 06:52:43;;;;;;;7.32;4.03;;;23.50;98.60;;;;;;4246328;27;20047;-75
2021/06/19 06:54:47;;;;;;;8.98;3.65;;;23.50;98.70;;;;;;4246711;27;20392;-75
2021/06/19 06:56:50;;;;;;;4.43;3.15;;;23.40;98.60;;;;;;4245951;27;20047;-75
2021/06/19 06:58:53;;;;;;;5.10;3.40;;;23.60;98.50;;;;;;4246865;27;20115;-76
2021/06/19 07:00:56;;;;;;;6.30;2.67;;;23.50;98.70;;;;;;4246741;27;20059;-75
2021/06/19 07:02:59;;;;;;;8.98;3.20;;;23.30;98.50;;;;;;4246545;27;20116;-75
2021/06/19 07:05:02;;;;;;;6.13;3.13;;;23.60;98.20;;;;;;4246643;27;20051;-74
2021/06/19 07:07:05;;;;;;;8.23;3.13;;;23.70;98.00;;;;;;4246702;27;20412;-74
2021/06/19 07:09:08;;;;;;;7.03;3.50;;;23.70;97.90;;;;;;4246635;27;20057;-77
2021/06/19 07:11:13;;;;;;;5.13;2.60;;;23.60;98.20;;;;;;4246932;27;20477;-76
2021/06/19 07:13:16;;;;;;;7.28;2.88;;;23.60;98.00;;;;;;4246380;27;20085;-74
2021/06/19 07:15:19;;;;;;;6.22;2.75;;;23.60;97.90;;;;;;4245812;27;20384;-75
2021/06/19 07:17:23;;;;;;;7.60;2.70;;;23.80;97.80;;;;;;4229275;28;20056;-73
2021/06/19 07:19:26;;;;;;;7.22;3.08;;;24.00;97.60;;;;;;4229720;28;20389;-74
2021/06/19 07:21:30;;;;;;;5.50;2.72;;;24.10;97.20;;;;;;4211143;28;20056;-74
2021/06/19 07:23:33;;;;;;;6.95;2.97;;;24.30;96.80;;;;;;4229346;28;20467;-74
2021/06/19 07:25:36;;;;;;;10.60;3.47;;;24.30;96.90;;;;;;4229614;28;20051;-76
2021/06/19 07:27:41;;;;;;;4.60;2.90;;;24.40;96.30;;;;;;4229329;28;20104;-74
2021/06/19 07:29:44;;;;;;;9.57;4.45;;;24.70;96.20;;;;;;4229483;28;20044;-74
2021/06/19 07:31:47;;;;;;;6.57;3.60;;;24.80;95.80;;;;;;4211228;28;20601;-77
2021/06/19 07:33:50;;;;;;;5.35;2.78;;;24.80;95.60;;;;;;4211662;28;20040;-75
2021/06/19 07:35:54;;;;;;;7.80;4.13;;;24.80;95.90;;;;;;4229086;28;20492;-74
2021/06/19 07:37:57;;;;;;;10.82;4.07;;;24.50;95.90;;;;;;4229526;28;20116;-74
2021/06/19 07:40:00;;;;;;;7.63;3.75;;;24.40;96.30;;;;;;4229922;28;20459;-74
2021/06/19 07:42:04;;;;;;;6.43;3.63;;;24.50;96.30;;;;;;4214202;28;20121;-73
2021/06/19 07:44:09;;;;;;;8.00;3.53;;;24.70;96.30;;;;;;4214947;28;20105;-73
2021/06/19 07:46:12;;;;;;;10.15;3.78;;;24.70;95.80;;;;;;4232406;28;20055;-74
2021/06/19 07:48:15;;;;;;;8.43;3.05;;;24.70;95.80;;;;;;4230016;28;20070;-74
2021/06/19 07:50:19;;;;;;;7.00;3.35;;;24.60;95.90;;;;;;4244428;27;20057;-72
2021/06/19 07:52:23;;;;;;;4.80;3.42;;;24.50;96.00;;;;;;4246117;27;20491;-74
2021/06/19 07:54:26;;;;;;;5.68;3.88;;;24.20;96.30;;;;;;4246875;27;20074;-77
2021/06/19 07:56:29;;;;;;;4.72;3.60;;;24.00;96.60;;;;;;4246843;28;20051;-74
2021/06/19 07:58:32;;;;;;;8.25;3.88;;;23.80;97.00;;;;;;4246691;28;20059;-73
2021/06/19 08:00:36;;;;;;;5.55;3.10;;;23.80;96.90;;;;;;4246757;28;20419;-73
2021/06/19 08:02:42;;;;;;;8.60;3.80;;;23.80;96.80;;;;;;4247294;28;20055;-75
2021/06/19 08:04:46;;;;;;;5.95;3.13;;;23.90;96.80;;;;;;4248648;28;20476;-75
2021/06/19 08:06:49;;;;;;;6.38;3.08;;;23.90;97.00;;;;;;4249311;28;20116;-75
2021/06/19 08:08:54;;;;;;;7.85;3.47;;;23.80;97.10;;;;;;4251705;27;20116;-73
2021/06/19 08:10:57;;;;;;;5.70;2.92;;;23.90;97.20;;;;;;4252728;27;20048;-73
2021/06/19 08:13:00;;;;;;;6.07;2.90;;;24.00;97.10;;;;;;4251458;27;20052;-74
2021/06/19 08:15:04;;;;;;;6.97;3.78;;;24.10;96.90;;;;;;4242602;27;20420;-78
2021/06/19 08:17:17;;;;;;;6.17;3.53;;;24.00;97.10;;;;;;4235181;28;20039;-74
2021/06/19 08:19:20;;;;;;;8.63;4.07;;;24.00;97.20;;;;;;4235752;28;20052;-72
2021/06/19 08:21:23;;;;;;;8.73;4.00;;;24.10;97.30;;;;;;4235367;28;20128;-73
2021/06/19 08:23:27;;;;;;;6.90;3.67;;;24.10;97.30;;;;;;4216857;28;20052;-72
2021/06/19 08:25:30;;;;;;;6.22;3.97;;;24.10;97.10;;;;;;4236972;27;20563;-73
2021/06/19 08:27:33;;;;;;;9.40;3.40;;;23.90;97.40;;;;;;4243119;27;20055;-70
2021/06/19 08:29:36;;;;;;;7.70;3.33;;;24.00;97.50;;;;;;4254158;27;20108;-72
2021/06/19 08:31:41;;;;;;;9.93;3.80;;;23.80;98.00;;;;;;4251871;27;20531;-71
2021/06/19 08:33:45;;;;;;;7.50;3.53;;;23.90;98.00;;;;;;4248360;27;20047;-71
2021/06/19 08:35:48;;;;;;;9.13;3.70;;;23.80;97.90;;;;;;4248211;27;20051;-72
2021/06/19 08:37:51;;;;;;;6.80;3.35;;;23.80;98.10;;;;;;4248652;27;20046;-72
2021/06/19 08:39:57;;;;;;;6.70;3.60;;;23.70;98.10;;;;;;4248195;27;20100;-71
2021/06/19 08:42:00;;;;;;;4.80;3.13;;;23.80;98.10;;;;;;4248506;27;20755;-72
2021/06/19 08:44:04;;;;;;;6.43;3.70;;;23.70;98.30;;;;;;4248329;27;20123;-72
2021/06/19 08:46:08;;;;;;;8.77;3.70;;;23.80;98.20;;;;;;4251258;27;20066;-72
2021/06/19 08:48:11;;;;;;;7.50;3.95;;;23.70;98.20;;;;;;4252754;27;20047;-72
2021/06/19 08:50:16;;;;;;;15.83;3.70;;;23.70;98.40;;;;;;4253327;27;20051;-71
2021/06/19 08:52:21;;;;;;;6.05;3.60;;;23.80;98.50;;;;;;4250950;27;20047;-72
2021/06/19 08:54:25;;;;;;;6.68;3.90;;;24.00;98.40;;;;;;4250367;27;20051;-72
2021/06/19 08:56:28;;;;;;;5.97;4.28;;;24.10;98.00;;;;;;4250743;27;20052;-72
2021/06/19 08:58:31;;;;;;;7.32;3.83;;;23.90;98.00;;;;;;4250776;27;20059;-71
2021/06/19 09:00:34;;;;;;;5.68;4.10;;;23.90;98.00;;;;;;4250002;27;20392;-72
2021/06/19 09:02:37;;;;;;;8.05;4.15;;;23.80;98.30;;;;;;4249906;27;20062;-71
2021/06/19 09:04:51;;;;;;;6.63;4.10;;;23.80;98.20;;;;;;4249948;27;20055;-72
2021/06/19 09:06:56;;;;;;;5.97;4.47;;;23.80;98.30;;;;;;4250865;27;20059;-71
2021/06/19 09:09:01;;;;;;;7.80;4.20;;;23.80;98.40;;;;;;4251730;27;20051;-73
2021/06/19 09:11:05;;;;;;;10.55;3.28;;;23.90;98.30;;;;;;4251662;27;20059;-72
2021/06/19 09:13:09;;;;;;;7.03;3.90;;;24.20;97.90;;;;;;4251141;27;20054;-71
2021/06/19 09:15:15;;;;;;;7.05;3.15;;;24.20;98.00;;;;;;4255122;27;20070;-72
2021/06/19 09:17:20;;;;;;;8.73;4.25;;;24.10;98.20;;;;;;4256603;27;20481;-72
2021/06/19 09:19:25;;;;;;;7.65;3.78;;;24.20;98.00;;;;;;4254359;27;20047;-72
2021/06/19 09:21:31;;;;;;;7.03;3.67;;;24.10;98.20;;;;;;4250748;27;20051;-71
2021/06/19 09:23:36;;;;;;;7.00;4.18;;;23.90;98.20;;;;;;4250339;27;20051;-71
2021/06/19 09:25:40;;;;;;;5.28;3.45;;;23.90;98.30;;;;;;4249801;27;20115;-72
2021/06/19 09:27:46;;;;;;;4.97;4.10;;;23.80;98.60;;;;;;4249890;27;20084;-72
2021/06/19 09:30:05;;;;;;;8.85;4.78;;;23.90;98.40;;;;;;4248567;27;20454;-73
2021/06/19 09:32:08;;;;;;;8.02;3.63;;;23.60;99.00;;;;;;4248536;27;20059;-72
2021/06/19 09:34:13;;;;;;;9.98;4.25;;;23.70;98.90;;;;;;4248450;27;20517;-71
2021/06/19 09:36:38;;;;;;;5.93;3.55;;;24.00;98.70;;;;;;4248425;27;20104;-71
2021/06/19 09:39:00;;;;;;;5.63;3.80;;;24.10;98.50;;;;;;4248576;27;20432;-71
2021/06/19 09:41:04;;;;;;;7.68;3.80;;;24.10;98.60;;;;;;4249297;27;20047;-72
2021/06/19 09:43:10;;;;;;;15.83;4.43;;;23.90;98.90;;;;;;4230465;27;20055;-72
2021/06/19 09:45:18;;;;;;;10.02;4.28;;;24.00;99.00;;;;;;4232015;28;20056;-71
2021/06/19 09:47:21;;;;;;;5.30;3.13;;;24.20;98.90;;;;;;4252418;27;20047;-71
2021/06/19 09:49:30;;;;;;;6.13;3.20;;;24.40;98.50;;;;;;4250948;27;20051;-71
2021/06/19 09:51:33;;;;;;;9.43;3.78;;;24.50;98.30;;;;;;4252408;27;20275;-73
2021/06/19 09:53:36;;;;;;;16.05;4.22;;;24.40;98.30;;;;;;4253795;27;20055;-71
2021/06/19 09:56:04;;;;;;;8.73;3.78;;;24.40;98.20;;;;;;4251551;27;20043;-71
2021/06/19 09:58:07;;;;;;;5.68;4.03;;;24.50;98.20;;;;;;4251576;27;20074;-71
2021/06/19 10:00:12;;;;;;;6.25;3.75;;;24.60;98.10;;;;;;4250860;27;20464;-72
2021/06/19 10:02:19;;;;;;;8.73;3.60;;;24.60;98.10;;;;;;4248735;27;20079;-72
2021/06/19 10:04:23;;;;;;;8.00;3.35;;;24.70;98.20;;;;;;4249743;27;20157;-71
2021/06/19 10:06:27;;;;;;;6.28;3.50;;;24.70;98.10;;;;;;4250472;27;20108;-72
2021/06/19 10:08:31;;;;;;;9.38;3.50;;;25.00;97.80;;;;;;4250968;27;20055;-71
2021/06/19 10:10:35;;;;;;;4.70;4.20;;;25.20;97.50;;;;;;4250497;27;20055;-71
2021/06/19 10:12:40;;;;;;;7.15;3.70;;;25.10;97.30;;;;;;4249105;27;20055;-70
2021/06/19 10:14:44;;;;;;;5.30;3.72;;;25.20;97.30;;;;;;4247886;27;20047;-72
2021/06/19 10:16:49;;;;;;;6.05;3.50;;;25.30;97.20;;;;;;4247289;27;20051;-72
2021/06/19 10:18:56;;;;;;;8.90;3.13;;;25.60;97.20;;;;;;4247240;27;20055;-72
2021/06/19 10:20:59;;;;;;;8.27;2.88;;;25.90;96.80;;;;;;4247514;27;20052;-72
2021/06/19 10:23:02;;;;;;;9.13;3.95;;;25.90;96.50;;;;;;4247721;27;20055;-71
2021/06/19 10:25:11;;;;;;;6.63;3.90;;;25.90;96.10;;;;;;4247367;27;20115;-72
2021/06/19 10:27:16;;;;;;;4.82;3.47;;;25.90;96.30;;;;;;4247680;27;20116;-72
2021/06/19 10:29:25;;;;;;;7.97;3.60;;;26.00;95.90;;;;;;4247652;27;20055;-72
2021/06/19 10:31:35;;;;;;;4.75;4.10;;;25.80;96.00;;;;;;4246666;27;20062;-72
2021/06/19 10:33:39;;;;;;;5.18;3.80;;;25.70;96.00;;;;;;4246946;27;20107;-71
2021/06/19 10:35:50;;;;;;;12.18;3.85;;;25.70;96.20;;;;;;4246904;27;20062;-72
2021/06/19 10:37:53;;;;;;;6.55;3.67;;;25.80;96.50;;;;;;4228750;28;20093;-72
2021/06/19 10:39:57;;;;;;;8.05;3.88;;;25.90;96.00;;;;;;4249025;27;20047;-72
2021/06/19 10:42:01;;;;;;;8.30;4.23;;;25.70;95.90;;;;;;4253219;27;20570;-72
2021/06/19 10:44:04;;;;;;;6.10;3.80;;;25.60;96.00;;;;;;4251440;27;20467;-72
2021/06/19 10:46:33;;;;;;;7.68;4.65;;;25.70;95.90;;;;;;4248584;27;20062;-73
2021/06/19 10:48:36;;;;;;;9.93;4.50;;;25.90;95.70;;;;;;4250856;27;20061;-72